createdAt,value
2023-05-03T00:00:47.628Z,9.47
2023-05-03T00:03:53.771Z,9.40
2023-05-03T00:06:56.696Z,9.34
2023-05-03T00:09:59.565Z,9.28
2023-05-03T00:13:02.688Z,9.24
2023-05-03T00:16:05.991Z,9.22
2023-05-03T00:19:17.688Z,9.22
2023-05-03T00:22:27.574Z,9.21
2023-05-03T00:25:30.329Z,9.17
2023-05-03T00:28:33.037Z,9.13
2023-05-03T00:31:36.123Z,9.08
2023-05-03T00:34:40.306Z,9.04
2023-05-03T00:37:43.023Z,9.03
2023-05-03T00:40:46.281Z,9.01
2023-05-03T00:43:48.942Z,8.98
2023-05-03T00:46:52.753Z,8.97
2023-05-03T00:49:57.256Z,8.96
2023-05-03T00:53:00.039Z,8.89
2023-05-03T00:56:03.660Z,8.86
2023-05-03T00:59:07.273Z,8.68
2023-05-03T01:02:10.068Z,8.74
2023-05-03T01:05:14.304Z,8.71
2023-05-03T01:08:26.661Z,8.66
2023-05-03T01:11:38.942Z,8.64
2023-05-03T01:14:51.041Z,8.64
2023-05-03T01:18:03.066Z,8.64
2023-05-03T01:21:09.252Z,8.62
2023-05-03T01:24:18.975Z,8.61
2023-05-03T01:27:23.029Z,8.59
2023-05-03T01:30:29.052Z,8.53
2023-05-03T01:33:41.457Z,8.50
2023-05-03T01:36:46.190Z,8.50
2023-05-03T01:39:55.340Z,8.49
2023-05-03T01:43:00.783Z,8.58
2023-05-03T01:46:03.833Z,8.66
2023-05-03T01:49:06.589Z,8.71
2023-05-03T01:52:09.455Z,8.73
2023-05-03T01:55:12.304Z,8.76
2023-05-03T01:58:16.413Z,8.76
2023-05-03T02:01:19.899Z,8.77
2023-05-03T02:04:22.732Z,8.75
2023-05-03T02:07:26.777Z,8.67
2023-05-03T02:10:29.447Z,8.59
2023-05-03T02:13:39.964Z,8.48
2023-05-03T02:16:43.146Z,8.43
2023-05-03T02:19:45.874Z,8.37
2023-05-03T02:22:48.616Z,8.31
2023-05-03T02:25:51.423Z,8.27
2023-05-03T02:28:55.954Z,8.21
2023-05-03T02:31:58.632Z,8.20
2023-05-03T02:35:01.765Z,8.18
2023-05-03T02:38:04.484Z,8.15
2023-05-03T02:41:07.439Z,8.13
2023-05-03T02:44:11.781Z,8.09
2023-05-03T02:47:14.643Z,8.05
2023-05-03T02:50:17.424Z,8.04
2023-05-03T02:53:20.102Z,8.01
2023-05-03T02:56:22.797Z,8.00
2023-05-03T02:59:26.828Z,8.01
2023-05-03T03:02:30.332Z,8.01
2023-05-03T03:05:33.170Z,7.90
2023-05-03T03:08:37.462Z,7.84
2023-05-03T03:11:40.156Z,7.76
2023-05-03T03:14:45.817Z,7.70
2023-05-03T03:17:48.574Z,7.68
2023-05-03T03:20:53.621Z,7.60
2023-05-03T03:23:56.480Z,7.56
2023-05-03T03:26:59.206Z,7.53
2023-05-03T03:30:03.515Z,7.49
2023-05-03T03:33:09.402Z,7.43
2023-05-03T03:36:12.161Z,7.37
2023-05-03T03:39:14.882Z,7.28
2023-05-03T03:42:19.126Z,7.25
2023-05-03T03:45:23.870Z,7.19
2023-05-03T03:48:26.609Z,7.15
2023-05-03T03:51:29.410Z,7.12
2023-05-03T03:54:32.249Z,7.07
2023-05-03T03:57:34.952Z,7.06
2023-05-03T04:00:39.451Z,7.05
2023-05-03T04:03:47.525Z,7.01
2023-05-03T04:06:50.473Z,7.00
2023-05-03T04:09:53.218Z,7.00
2023-05-03T04:12:56.022Z,6.99
2023-05-03T04:16:02.143Z,6.98
2023-05-03T04:19:05.987Z,7.00
2023-05-03T04:22:08.618Z,7.03
2023-05-03T04:25:14.060Z,7.08
2023-05-03T04:28:16.820Z,6.98
2023-05-03T04:31:22.141Z,7.13
2023-05-03T04:34:30.238Z,7.16
2023-05-03T04:37:35.318Z,7.20
2023-05-03T04:40:38.362Z,7.25
2023-05-03T04:43:41.032Z,7.33
2023-05-03T04:46:45.151Z,7.31
2023-05-03T04:49:47.904Z,7.33
2023-05-03T04:52:50.689Z,7.37
2023-05-03T04:55:53.391Z,7.44
2023-05-03T04:58:56.150Z,7.40
2023-05-03T05:02:00.398Z,7.56
2023-05-03T05:05:06.286Z,7.66
2023-05-03T05:08:11.790Z,7.77
2023-05-03T05:11:15.697Z,7.88
2023-05-03T05:14:18.483Z,7.96
2023-05-03T05:17:22.620Z,8.08
2023-05-03T05:20:25.326Z,8.20
2023-05-03T05:23:28.027Z,8.29
2023-05-03T05:26:31.019Z,8.37
2023-05-03T05:29:34.460Z,8.49
2023-05-03T05:32:38.644Z,8.56
2023-05-03T05:35:41.447Z,8.61
2023-05-03T05:38:44.214Z,8.67
2023-05-03T05:41:46.969Z,8.86
2023-05-03T05:44:49.651Z,9.01
2023-05-03T05:47:53.736Z,9.73
2023-05-03T05:50:58.685Z,10.61
2023-05-03T05:54:01.388Z,11.23
2023-05-03T05:57:04.110Z,11.71
2023-05-03T06:00:14.804Z,12.14
2023-05-03T06:03:19.468Z,12.39
2023-05-03T06:06:22.545Z,12.76
2023-05-03T06:09:25.407Z,13.43
2023-05-03T06:12:28.435Z,13.91
2023-05-03T06:15:31.574Z,14.27
2023-05-03T06:18:35.641Z,14.50
2023-05-03T06:21:38.337Z,14.84
2023-05-03T06:24:41.181Z,15.19
2023-05-03T06:27:43.988Z,15.21
2023-05-03T06:30:50.439Z,15.43
2023-05-03T06:33:54.585Z,15.25
2023-05-03T06:36:57.541Z,15.38
2023-05-03T06:40:00.531Z,15.26
2023-05-03T06:43:03.703Z,14.51
2023-05-03T06:46:08.891Z,14.44
2023-05-03T06:49:13.021Z,14.16
2023-05-03T06:52:16.358Z,14.03
2023-05-03T06:55:19.980Z,13.77
2023-05-03T06:58:22.693Z,13.71
2023-05-03T07:01:25.460Z,13.91
2023-05-03T07:04:30.394Z,14.54
2023-05-03T07:07:34.271Z,14.49
2023-05-03T07:10:37.006Z,14.34
2023-05-03T07:13:39.923Z,14.53
2023-05-03T07:16:45.566Z,14.83
2023-05-03T07:19:50.869Z,14.94
2023-05-03T07:22:55.755Z,15.43
2023-05-03T07:25:59.392Z,15.54
2023-05-03T07:29:02.107Z,15.82
2023-05-03T07:32:05.657Z,16.03
2023-05-03T07:35:10.928Z,15.99
2023-05-03T07:38:16.819Z,16.27
2023-05-03T07:41:19.743Z,16.31
2023-05-03T07:44:22.438Z,15.93
2023-05-03T07:47:25.242Z,15.62
2023-05-03T07:50:29.299Z,15.54
2023-05-03T07:53:32.009Z,15.54
2023-05-03T07:56:34.789Z,15.52
2023-05-03T07:59:38.725Z,15.30
2023-05-03T08:02:41.979Z,15.24
2023-05-03T08:05:48.227Z,15.27
2023-05-03T08:08:51.113Z,15.22
2023-05-03T08:11:53.843Z,15.31
2023-05-03T08:14:57.353Z,15.21
2023-05-03T08:18:02.306Z,14.79
2023-05-03T08:21:08.028Z,14.41
2023-05-03T08:24:10.834Z,14.08
2023-05-03T08:27:13.554Z,13.83
2023-05-03T08:30:16.717Z,13.75
2023-05-03T08:33:19.381Z,13.69
2023-05-03T08:36:23.539Z,13.64
2023-05-03T08:39:27.101Z,13.75
2023-05-03T08:42:31.988Z,13.67
2023-05-03T08:45:34.667Z,13.66
2023-05-03T08:48:37.361Z,13.78
2023-05-03T08:51:42.369Z,13.89
2023-05-03T08:54:46.687Z,14.10
2023-05-03T08:57:52.115Z,14.08
2023-05-03T09:00:54.905Z,14.28
2023-05-03T09:03:57.778Z,14.17
2023-05-03T09:07:10.430Z,14.10
2023-05-03T09:10:24.132Z,14.13
2023-05-03T09:13:32.071Z,14.16
2023-05-03T09:16:35.005Z,14.40
2023-05-03T09:19:51.136Z,14.53
2023-05-03T09:22:55.269Z,14.66
2023-05-03T09:25:59.168Z,14.67
2023-05-03T09:29:03.628Z,14.70
2023-05-03T09:32:08.457Z,14.80
2023-05-03T09:35:11.346Z,14.89
2023-05-03T09:38:27.820Z,15.17
2023-05-03T09:41:34.104Z,15.10
2023-05-03T09:44:51.460Z,14.85
2023-05-03T09:47:55.833Z,15.06
2023-05-03T09:50:59.050Z,15.26
2023-05-03T09:54:04.532Z,15.41
2023-05-03T09:57:08.854Z,15.59
2023-05-03T10:00:13.804Z,15.81
2023-05-03T10:03:24.682Z,15.89
2023-05-03T10:06:33.034Z,15.98
2023-05-03T10:09:40.958Z,16.10
2023-05-03T10:12:48.850Z,16.18
2023-05-03T10:15:57.208Z,16.12
2023-05-03T10:19:08.298Z,16.14
2023-05-03T10:22:12.355Z,16.17
2023-05-03T10:25:16.809Z,16.40
2023-05-03T10:28:19.570Z,16.50
2023-05-03T10:31:46.242Z,16.53
2023-05-03T10:34:49.077Z,16.53
2023-05-03T10:37:52.844Z,16.57
2023-05-03T10:40:59.115Z,16.46
2023-05-03T10:44:02.302Z,16.49
2023-05-03T10:47:13.818Z,16.53
2023-05-03T10:50:27.335Z,16.71
2023-05-03T10:53:41.180Z,16.85
2023-05-03T10:56:57.208Z,16.83
2023-05-03T11:00:03.137Z,16.98
2023-05-03T11:03:14.221Z,17.08
2023-05-03T11:06:31.657Z,17.13
2023-05-03T11:09:35.447Z,17.16
2023-05-03T11:12:39.498Z,17.29
2023-05-03T11:15:43.381Z,17.47
2023-05-03T11:18:46.688Z,17.47
2023-05-03T11:21:49.521Z,17.63
2023-05-03T11:24:52.359Z,17.79
2023-05-03T11:27:56.462Z,17.88
2023-05-03T11:30:59.237Z,17.98
2023-05-03T11:34:02.278Z,18.09
2023-05-03T11:37:05.292Z,18.14
2023-05-03T11:40:15.531Z,18.10
2023-05-03T11:43:19.614Z,18.05
2023-05-03T11:46:26.486Z,18.15
2023-05-03T11:49:29.423Z,18.24
2023-05-03T11:52:32.150Z,18.39
2023-05-03T11:55:34.926Z,18.51
2023-05-03T11:58:51.298Z,18.49
2023-05-03T12:01:55.744Z,18.53
2023-05-03T12:04:58.671Z,18.65
2023-05-03T12:08:02.817Z,18.75
2023-05-03T12:11:09.524Z,18.77
2023-05-03T12:14:15.591Z,18.74
2023-05-03T12:17:38.774Z,18.71
2023-05-03T12:21:29.274Z,18.64
2023-05-03T12:24:06.656Z,18.63
2023-05-03T12:27:09.588Z,18.56
2023-05-03T12:33:21.895Z,18.64
2023-05-03T12:36:26.560Z,18.76
2023-05-03T12:39:31.653Z,18.76
2023-05-03T12:42:35.639Z,18.84
2023-05-03T12:45:40.796Z,18.85
2023-05-03T12:48:46.517Z,18.82
2023-05-03T12:52:04.855Z,18.98
2023-05-03T12:55:17.818Z,18.93
2023-05-03T13:04:57.214Z,19.07
2023-05-03T13:07:59.191Z,19.14
2023-05-03T13:11:02.824Z,19.30
2023-05-03T13:14:05.886Z,19.27
2023-05-03T13:17:10.343Z,19.24
2023-05-03T13:20:14.373Z,19.28
2023-05-03T13:23:17.016Z,19.39
2023-05-03T13:26:19.872Z,19.38
2023-05-03T13:29:24.152Z,19.42
2023-05-03T13:32:28.402Z,19.50
2023-05-03T13:35:31.888Z,19.54
2023-05-03T13:38:34.787Z,19.49
2023-05-03T13:41:38.762Z,19.43
2023-05-03T13:44:42.540Z,19.59
2023-05-03T13:48:13.965Z,19.62
2023-05-03T13:51:10.427Z,19.64
2023-05-03T13:54:13.187Z,19.70
2023-05-03T13:57:16.018Z,19.66
2023-05-03T14:00:20.753Z,19.70
2023-05-03T14:03:25.049Z,19.63
2023-05-03T14:06:29.299Z,19.69
2023-05-03T14:09:33.146Z,19.79
2023-05-03T14:12:37.151Z,19.88
2023-05-03T14:15:40.730Z,19.96
2023-05-03T14:18:45.206Z,19.99
2023-05-03T14:21:49.809Z,19.94
2023-05-03T14:24:52.725Z,19.82
2023-05-03T14:27:55.555Z,19.81
2023-05-03T14:30:58.379Z,19.70
2023-05-03T14:34:02.521Z,19.63
2023-05-03T14:37:05.275Z,19.74
2023-05-03T14:40:09.304Z,19.84
2023-05-03T14:43:12.028Z,19.93
2023-05-03T14:46:14.915Z,19.69
2023-05-03T14:49:19.226Z,19.72
2023-05-03T14:52:21.950Z,19.83
2023-05-03T14:55:24.730Z,19.85
2023-05-03T14:58:27.641Z,19.91
2023-05-03T15:01:30.463Z,19.92
2023-05-03T15:04:37.013Z,19.93
2023-05-03T15:07:39.906Z,20.01
2023-05-03T15:10:44.412Z,20.05
2023-05-03T15:13:47.204Z,19.99
2023-05-03T15:16:50.036Z,20.02
2023-05-03T15:19:54.041Z,19.98
2023-05-03T15:22:56.927Z,20.04
2023-05-03T15:25:59.586Z,20.05
2023-05-03T15:29:02.354Z,19.99
2023-05-03T15:32:05.565Z,19.97
2023-05-03T15:35:10.345Z,20.05
2023-05-03T15:38:13.120Z,20.13
2023-05-03T15:41:15.827Z,20.05
2023-05-03T15:44:18.488Z,19.96
2023-05-03T15:47:22.606Z,19.93
2023-05-03T15:50:26.637Z,19.95
2023-05-03T15:53:29.319Z,20.00
2023-05-03T15:56:32.320Z,20.09
2023-05-03T15:59:35.113Z,19.95
2023-05-03T16:02:38.432Z,19.97
2023-05-03T16:05:42.516Z,19.97
2023-05-03T16:08:45.389Z,19.96
2023-05-03T16:11:48.899Z,19.93
2023-05-03T16:14:52.854Z,19.89
2023-05-03T16:17:55.725Z,19.89
2023-05-03T16:21:02.939Z,19.88
2023-05-03T16:24:06.532Z,19.85
2023-05-03T16:27:11.571Z,19.79
2023-05-03T16:30:15.179Z,19.76
2023-05-03T16:33:18.341Z,19.67
2023-05-03T16:36:24.991Z,19.66
2023-05-03T16:39:28.398Z,19.61
2023-05-03T16:42:32.242Z,19.56
2023-05-03T16:45:35.084Z,19.52
2023-05-03T16:48:37.792Z,19.47
2023-05-03T16:51:41.889Z,19.39
2023-05-03T16:54:44.632Z,19.32
2023-05-03T16:57:50.022Z,19.31
2023-05-03T17:00:53.478Z,19.19
2023-05-03T17:03:56.426Z,19.13
2023-05-03T17:07:04.715Z,19.15
2023-05-03T17:10:08.736Z,19.06
2023-05-03T17:13:11.721Z,19.00
2023-05-03T17:16:15.870Z,18.95
2023-05-03T17:19:19.521Z,18.93
2023-05-03T17:22:23.635Z,18.84
2023-05-03T17:25:26.468Z,18.79
2023-05-03T17:28:29.221Z,18.68
2023-05-03T17:31:32.075Z,18.61
2023-05-03T17:34:34.914Z,18.54
2023-05-03T17:37:39.100Z,18.49
2023-05-03T17:40:43.272Z,18.37
2023-05-03T17:43:46.259Z,18.25
2023-05-03T17:46:49.069Z,18.16
2023-05-03T17:49:51.983Z,18.01
2023-05-03T17:52:58.904Z,17.96
2023-05-03T17:56:01.695Z,17.83
2023-05-03T17:59:04.386Z,17.63
2023-05-03T18:02:07.561Z,17.62
2023-05-03T18:05:11.018Z,17.74
2023-05-03T18:08:15.082Z,17.62
2023-05-03T18:11:17.757Z,17.60
2023-05-03T18:14:22.766Z,17.46
2023-05-03T18:17:25.774Z,17.11
2023-05-03T18:20:28.730Z,16.93
2023-05-03T18:23:33.679Z,16.70
2023-05-03T18:26:36.486Z,16.66
2023-05-03T18:29:39.232Z,16.56
2023-05-03T18:32:42.264Z,16.49
2023-05-03T18:35:48.391Z,16.36
2023-05-03T18:38:53.767Z,16.24
2023-05-03T18:41:57.060Z,16.08
2023-05-03T18:44:59.783Z,15.86
2023-05-03T18:48:02.484Z,15.71
2023-05-03T18:51:05.633Z,15.50
2023-05-03T18:54:10.410Z,15.47
2023-05-03T18:57:13.551Z,15.34
2023-05-03T19:00:18.461Z,15.21
2023-05-03T19:03:21.190Z,15.09
2023-05-03T19:06:24.261Z,14.97
2023-05-03T19:09:28.458Z,14.85
2023-05-03T19:12:31.483Z,14.74
2023-05-03T19:15:34.384Z,14.65
2023-05-03T19:18:39.971Z,14.57
2023-05-03T19:21:43.821Z,14.47
2023-05-03T19:24:48.017Z,14.41
2023-05-03T19:27:50.861Z,14.31
2023-05-03T19:30:54.300Z,14.21
2023-05-03T19:33:57.141Z,14.11
2023-05-03T19:36:59.822Z,14.03
2023-05-03T19:40:04.878Z,13.93
2023-05-03T19:43:08.323Z,13.84
2023-05-03T19:46:11.124Z,13.76
2023-05-03T19:49:13.946Z,13.69
2023-05-03T19:52:16.689Z,13.61
2023-05-03T19:55:20.905Z,13.50
2023-05-03T19:58:23.642Z,13.42
2023-05-03T20:01:26.786Z,13.35
2023-05-03T20:04:29.615Z,13.28
2023-05-03T20:07:32.565Z,13.22
2023-05-03T20:10:37.171Z,13.14
2023-05-03T20:13:39.909Z,12.98
2023-05-03T20:16:43.289Z,12.83
2023-05-03T20:19:46.493Z,12.73
2023-05-03T20:22:49.702Z,12.63
2023-05-03T20:25:54.087Z,12.51
2023-05-03T20:28:57.277Z,12.46
2023-05-03T20:32:00.332Z,12.41
2023-05-03T20:35:04.858Z,12.38
2023-05-03T20:38:07.668Z,12.34
2023-05-03T20:41:11.763Z,12.26
2023-05-03T20:44:14.813Z,12.21
2023-05-03T20:47:17.593Z,12.17
2023-05-03T20:50:20.881Z,12.12
2023-05-03T20:53:23.647Z,12.03
2023-05-03T20:56:27.770Z,11.98
2023-05-03T20:59:30.832Z,11.94
2023-05-03T21:02:33.600Z,11.80
2023-05-03T21:05:36.606Z,11.85
2023-05-03T21:08:39.333Z,11.82
2023-05-03T21:11:43.379Z,11.77
2023-05-03T21:14:46.322Z,11.72
2023-05-03T21:17:49.027Z,11.52
2023-05-03T21:20:54.448Z,11.57
2023-05-03T21:23:57.248Z,11.53
2023-05-03T21:27:02.693Z,11.47
2023-05-03T21:30:06.401Z,11.43
2023-05-03T21:33:09.391Z,11.29
2023-05-03T21:36:12.577Z,11.13
2023-05-03T21:39:15.353Z,11.06
2023-05-03T21:42:19.453Z,11.01
2023-05-03T21:45:23.239Z,10.96
2023-05-03T21:48:26.420Z,10.95
2023-05-03T21:51:29.137Z,10.91
2023-05-03T21:54:31.888Z,10.90
2023-05-03T21:57:36.761Z,10.87
2023-05-03T22:00:40.467Z,10.86
2023-05-03T22:03:43.322Z,10.74
2023-05-03T22:06:47.063Z,10.80
2023-05-03T22:09:49.844Z,10.76
2023-05-03T22:12:54.035Z,10.69
2023-05-03T22:15:56.831Z,10.66
2023-05-03T22:18:59.542Z,10.58
2023-05-03T22:22:02.507Z,10.53
2023-05-03T22:25:06.739Z,10.48
2023-05-03T22:28:10.877Z,10.42
2023-05-03T22:31:13.710Z,10.39
2023-05-03T22:34:16.909Z,10.33
2023-05-03T22:37:19.653Z,10.30
2023-05-03T22:40:22.500Z,10.28
2023-05-03T22:43:26.821Z,10.16
2023-05-03T22:46:29.536Z,10.13
2023-05-03T22:49:32.246Z,10.09
2023-05-03T22:52:35.114Z,9.97
2023-05-03T22:55:37.970Z,9.85
2023-05-03T22:58:42.127Z,9.80
2023-05-03T23:01:46.418Z,9.72
2023-05-03T23:04:49.177Z,9.73
2023-05-03T23:07:52.347Z,9.69
2023-05-03T23:10:57.464Z,9.62
2023-05-03T23:14:01.547Z,9.49
2023-05-03T23:17:04.543Z,9.41
2023-05-03T23:20:09.991Z,9.40
2023-05-03T23:23:12.794Z,9.41
2023-05-03T23:26:15.560Z,9.38
2023-05-03T23:29:20.122Z,9.38
2023-05-03T23:32:23.376Z,9.40
2023-05-03T23:35:26.842Z,9.42
2023-05-03T23:38:29.603Z,9.41
2023-05-03T23:41:33.994Z,9.40
2023-05-03T23:44:50.895Z,9.34
2023-05-03T23:47:56.349Z,9.32
2023-05-03T23:50:59.106Z,9.32
2023-05-03T23:54:02.346Z,9.30
2023-05-03T23:57:05.090Z,9.23
